sensor_id;sensor_type;location;lat;lon;timestamp;P1;durP1;ratioP1;P2;durP2;ratioP2
11427;SDS011;5770;44.504;11.346;2023-05-07T00:01:47;15.27;;;11.10;;
11427;SDS011;5770;44.504;11.346;2023-05-07T00:04:14;12.32;;;11.13;;
11427;SDS011;5770;44.504;11.346;2023-05-07T00:06:41;11.02;;;9.80;;
11427;SDS011;5770;44.504;11.346;2023-05-07T00:09:10;11.48;;;10.27;;
11427;SDS011;5770;44.504;11.346;2023-05-07T00:11:37;13.05;;;11.43;;
11427;SDS011;5770;44.504;11.346;2023-05-07T00:14:06;14.55;;;13.00;;
11427;SDS011;5770;44.504;11.346;2023-05-07T00:16:34;14.73;;;13.18;;
11427;SDS011;5770;44.504;11.346;2023-05-07T00:19:01;13.88;;;12.40;;
11427;SDS011;5770;44.504;11.346;2023-05-07T00:21:29;13.18;;;11.77;;
11427;SDS011;5770;44.504;11.346;2023-05-07T00:23:57;14.35;;;12.82;;
11427;SDS011;5770;44.504;11.346;2023-05-07T00:26:25;13.90;;;12.50;;
11427;SDS011;5770;44.504;11.346;2023-05-07T00:28:52;18.55;;;12.27;;
11427;SDS011;5770;44.504;11.346;2023-05-07T00:31:20;12.93;;;11.68;;
11427;SDS011;5770;44.504;11.346;2023-05-07T00:33:47;12.73;;;11.38;;
11427;SDS011;5770;44.504;11.346;2023-05-07T00:36:14;13.57;;;12.27;;
11427;SDS011;5770;44.504;11.346;2023-05-07T00:38:44;13.30;;;11.90;;
11427;SDS011;5770;44.504;11.346;2023-05-07T00:41:11;15.18;;;12.98;;
11427;SDS011;5770;44.504;11.346;2023-05-07T00:43:40;13.75;;;12.48;;
11427;SDS011;5770;44.504;11.346;2023-05-07T00:46:07;14.65;;;12.48;;
11427;SDS011;5770;44.504;11.346;2023-05-07T00:48:35;12.40;;;11.18;;
11427;SDS011;5770;44.504;11.346;2023-05-07T00:51:02;16.52;;;11.98;;
11427;SDS011;5770;44.504;11.346;2023-05-07T00:53:30;12.27;;;11.07;;
11427;SDS011;5770;44.504;11.346;2023-05-07T00:55:57;12.70;;;11.02;;
11427;SDS011;5770;44.504;11.346;2023-05-07T00:58:25;13.75;;;11.23;;
11427;SDS011;5770;44.504;11.346;2023-05-07T01:00:54;14.23;;;11.40;;
11427;SDS011;5770;44.504;11.346;2023-05-07T01:03:22;16.60;;;12.10;;
11427;SDS011;5770;44.504;11.346;2023-05-07T01:05:49;12.00;;;10.80;;
11427;SDS011;5770;44.504;11.346;2023-05-07T01:08:16;14.18;;;11.38;;
11427;SDS011;5770;44.504;11.346;2023-05-07T01:10:44;13.02;;;11.55;;
11427;SDS011;5770;44.504;11.346;2023-05-07T01:13:12;13.93;;;11.07;;
11427;SDS011;5770;44.504;11.346;2023-05-07T01:15:41;13.13;;;11.80;;
11427;SDS011;5770;44.504;11.346;2023-05-07T01:18:10;12.15;;;10.48;;
11427;SDS011;5770;44.504;11.346;2023-05-07T01:20:38;15.80;;;11.68;;
11427;SDS011;5770;44.504;11.346;2023-05-07T01:23:06;12.40;;;11.18;;
11427;SDS011;5770;44.504;11.346;2023-05-07T01:25:34;10.60;;;9.63;;
11427;SDS011;5770;44.504;11.346;2023-05-07T01:28:01;10.25;;;9.20;;
11427;SDS011;5770;44.504;11.346;2023-05-07T01:30:28;10.60;;;9.50;;
11427;SDS011;5770;44.504;11.346;2023-05-07T01:32:56;15.98;;;9.30;;
11427;SDS011;5770;44.504;11.346;2023-05-07T01:35:27;8.73;;;7.88;;
11427;SDS011;5770;44.504;11.346;2023-05-07T01:37:56;10.95;;;8.35;;
11427;SDS011;5770;44.504;11.346;2023-05-07T01:40:24;11.30;;;8.98;;
11427;SDS011;5770;44.504;11.346;2023-05-07T01:42:52;11.77;;;9.55;;
11427;SDS011;5770;44.504;11.346;2023-05-07T01:45:21;11.52;;;9.40;;
11427;SDS011;5770;44.504;11.346;2023-05-07T01:47:48;11.43;;;8.93;;
11427;SDS011;5770;44.504;11.346;2023-05-07T01:50:16;9.32;;;8.13;;
11427;SDS011;5770;44.504;11.346;2023-05-07T01:52:43;8.38;;;7.43;;
11427;SDS011;5770;44.504;11.346;2023-05-07T01:55:11;8.52;;;7.40;;
11427;SDS011;5770;44.504;11.346;2023-05-07T01:57:42;7.43;;;6.72;;
11427;SDS011;5770;44.504;11.346;2023-05-07T02:00:09;8.88;;;7.95;;
11427;SDS011;5770;44.504;11.346;2023-05-07T02:02:36;10.40;;;8.50;;
11427;SDS011;5770;44.504;11.346;2023-05-07T02:05:04;10.75;;;8.57;;
11427;SDS011;5770;44.504;11.346;2023-05-07T02:07:32;8.88;;;7.97;;
11427;SDS011;5770;44.504;11.346;2023-05-07T02:09:59;9.18;;;7.65;;
11427;SDS011;5770;44.504;11.346;2023-05-07T02:12:26;9.05;;;7.75;;
11427;SDS011;5770;44.504;11.346;2023-05-07T02:14:55;11.30;;;7.38;;
11427;SDS011;5770;44.504;11.346;2023-05-07T02:17:22;7.75;;;6.95;;
11427;SDS011;5770;44.504;11.346;2023-05-07T02:19:50;7.32;;;6.45;;
11427;SDS011;5770;44.504;11.346;2023-05-07T02:22:17;10.23;;;6.70;;
11427;SDS011;5770;44.504;11.346;2023-05-07T02:24:45;5.97;;;5.32;;
11427;SDS011;5770;44.504;11.346;2023-05-07T02:27:12;6.07;;;4.53;;
11427;SDS011;5770;44.504;11.346;2023-05-07T02:29:39;5.07;;;4.57;;
11427;SDS011;5770;44.504;11.346;2023-05-07T02:32:08;7.20;;;3.80;;
11427;SDS011;5770;44.504;11.346;2023-05-07T02:34:35;4.40;;;3.55;;
11427;SDS011;5770;44.504;11.346;2023-05-07T02:37:02;6.90;;;3.55;;
11427;SDS011;5770;44.504;11.346;2023-05-07T02:39:30;5.07;;;3.30;;
11427;SDS011;5770;44.504;11.346;2023-05-07T02:41:57;4.10;;;2.70;;
11427;SDS011;5770;44.504;11.346;2023-05-07T02:44:24;4.30;;;2.70;;
11427;SDS011;5770;44.504;11.346;2023-05-07T02:46:52;2.83;;;2.53;;
11427;SDS011;5770;44.504;11.346;2023-05-07T02:49:20;6.55;;;2.50;;
11427;SDS011;5770;44.504;11.346;2023-05-07T02:51:48;2.50;;;2.30;;
11427;SDS011;5770;44.504;11.346;2023-05-07T02:54:15;3.92;;;2.85;;
11427;SDS011;5770;44.504;11.346;2023-05-07T02:56:43;3.17;;;2.60;;
11427;SDS011;5770;44.504;11.346;2023-05-07T02:59:10;2.70;;;2.50;;
11427;SDS011;5770;44.504;11.346;2023-05-07T03:01:37;2.95;;;2.60;;
11427;SDS011;5770;44.504;11.346;2023-05-07T03:04:04;3.50;;;2.58;;
11427;SDS011;5770;44.504;11.346;2023-05-07T03:06:33;2.42;;;2.20;;
11427;SDS011;5770;44.504;11.346;2023-05-07T03:09:00;2.50;;;2.30;;
11427;SDS011;5770;44.504;11.346;2023-05-07T03:11:28;3.65;;;2.25;;
11427;SDS011;5770;44.504;11.346;2023-05-07T03:13:55;2.72;;;2.30;;
11427;SDS011;5770;44.504;11.346;2023-05-07T03:16:22;2.92;;;2.42;;
11427;SDS011;5770;44.504;11.346;2023-05-07T03:18:49;3.63;;;2.40;;
11427;SDS011;5770;44.504;11.346;2023-05-07T03:21:17;2.42;;;2.20;;
11427;SDS011;5770;44.504;11.346;2023-05-07T03:23:46;6.18;;;2.58;;
11427;SDS011;5770;44.504;11.346;2023-05-07T03:26:13;3.78;;;2.22;;
11427;SDS011;5770;44.504;11.346;2023-05-07T03:28:40;4.22;;;2.35;;
11427;SDS011;5770;44.504;11.346;2023-05-07T03:31:08;2.17;;;1.98;;
11427;SDS011;5770;44.504;11.346;2023-05-07T03:33:35;5.57;;;2.38;;
11427;SDS011;5770;44.504;11.346;2023-05-07T03:36:02;3.13;;;2.25;;
11427;SDS011;5770;44.504;11.346;2023-05-07T03:38:30;2.95;;;2.35;;
11427;SDS011;5770;44.504;11.346;2023-05-07T03:40:59;3.85;;;2.20;;
11427;SDS011;5770;44.504;11.346;2023-05-07T03:43:26;3.25;;;2.40;;
11427;SDS011;5770;44.504;11.346;2023-05-07T03:45:54;4.22;;;2.63;;
11427;SDS011;5770;44.504;11.346;2023-05-07T03:48:21;3.85;;;2.20;;
11427;SDS011;5770;44.504;11.346;2023-05-07T03:50:48;3.08;;;2.20;;
11427;SDS011;5770;44.504;11.346;2023-05-07T03:53:15;6.03;;;2.75;;
11427;SDS011;5770;44.504;11.346;2023-05-07T03:55:42;3.42;;;2.38;;
11427;SDS011;5770;44.504;11.346;2023-05-07T03:58:11;3.17;;;2.20;;
11427;SDS011;5770;44.504;11.346;2023-05-07T04:00:38;2.63;;;2.38;;
11427;SDS011;5770;44.504;11.346;2023-05-07T04:03:06;3.45;;;2.63;;
11427;SDS011;5770;44.504;11.346;2023-05-07T04:05:33;2.70;;;2.40;;
11427;SDS011;5770;44.504;11.346;2023-05-07T04:08:00;3.30;;;2.40;;
11427;SDS011;5770;44.504;11.346;2023-05-07T04:10:29;4.72;;;2.20;;
11427;SDS011;5770;44.504;11.346;2023-05-07T04:12:56;2.42;;;2.20;;
11427;SDS011;5770;44.504;11.346;2023-05-07T04:15:25;5.03;;;2.30;;
11427;SDS011;5770;44.504;11.346;2023-05-07T04:17:52;2.75;;;2.55;;
11427;SDS011;5770;44.504;11.346;2023-05-07T04:20:19;4.70;;;2.40;;
11427;SDS011;5770;44.504;11.346;2023-05-07T04:22:47;3.28;;;2.50;;
11427;SDS011;5770;44.504;11.346;2023-05-07T04:25:15;3.25;;;2.45;;
11427;SDS011;5770;44.504;11.346;2023-05-07T04:27:42;3.25;;;2.70;;
11427;SDS011;5770;44.504;11.346;2023-05-07T04:30:10;3.38;;;2.50;;
11427;SDS011;5770;44.504;11.346;2023-05-07T04:32:39;4.18;;;2.90;;
11427;SDS011;5770;44.504;11.346;2023-05-07T04:35:06;4.25;;;2.80;;
11427;SDS011;5770;44.504;11.346;2023-05-07T04:37:34;3.10;;;2.90;;
11427;SDS011;5770;44.504;11.346;2023-05-07T04:40:01;3.88;;;3.10;;
11427;SDS011;5770;44.504;11.346;2023-05-07T04:42:30;5.20;;;3.30;;
11427;SDS011;5770;44.504;11.346;2023-05-07T04:44:57;4.25;;;2.83;;
11427;SDS011;5770;44.504;11.346;2023-05-07T04:47:25;3.58;;;2.83;;
11427;SDS011;5770;44.504;11.346;2023-05-07T04:49:53;3.55;;;2.80;;
11427;SDS011;5770;44.504;11.346;2023-05-07T04:52:20;3.08;;;2.75;;
11427;SDS011;5770;44.504;11.346;2023-05-07T04:54:48;5.43;;;2.83;;
11427;SDS011;5770;44.504;11.346;2023-05-07T04:57:15;6.93;;;2.70;;
11427;SDS011;5770;44.504;11.346;2023-05-07T04:59:43;2.80;;;2.60;;
11427;SDS011;5770;44.504;11.346;2023-05-07T05:02:10;2.80;;;2.50;;
11427;SDS011;5770;44.504;11.346;2023-05-07T05:04:38;3.15;;;2.65;;
11427;SDS011;5770;44.504;11.346;2023-05-07T05:07:06;4.32;;;2.45;;
11427;SDS011;5770;44.504;11.346;2023-05-07T05:09:33;2.92;;;2.55;;
11427;SDS011;5770;44.504;11.346;2023-05-07T05:12:00;5.97;;;2.65;;
11427;SDS011;5770;44.504;11.346;2023-05-07T05:14:28;3.33;;;2.53;;
11427;SDS011;5770;44.504;11.346;2023-05-07T05:16:55;4.50;;;2.67;;
11427;SDS011;5770;44.504;11.346;2023-05-07T05:19:23;4.75;;;2.85;;
11427;SDS011;5770;44.504;11.346;2023-05-07T05:21:50;2.65;;;2.45;;
11427;SDS011;5770;44.504;11.346;2023-05-07T05:24:18;2.95;;;2.67;;
11427;SDS011;5770;44.504;11.346;2023-05-07T05:26:45;3.28;;;2.50;;
11427;SDS011;5770;44.504;11.346;2023-05-07T05:29:13;2.90;;;2.60;;
11427;SDS011;5770;44.504;11.346;2023-05-07T05:31:40;5.38;;;2.80;;
11427;SDS011;5770;44.504;11.346;2023-05-07T05:34:07;3.60;;;2.70;;
11427;SDS011;5770;44.504;11.346;2023-05-07T05:36:34;3.45;;;2.33;;
11427;SDS011;5770;44.504;11.346;2023-05-07T05:39:02;4.40;;;2.85;;
11427;SDS011;5770;44.504;11.346;2023-05-07T05:41:31;5.80;;;3.10;;
11427;SDS011;5770;44.504;11.346;2023-05-07T05:43:58;3.63;;;2.78;;
11427;SDS011;5770;44.504;11.346;2023-05-07T05:46:25;6.00;;;4.10;;
11427;SDS011;5770;44.504;11.346;2023-05-07T05:48:52;6.93;;;4.65;;
11427;SDS011;5770;44.504;11.346;2023-05-07T05:51:20;7.00;;;6.03;;
11427;SDS011;5770;44.504;11.346;2023-05-07T05:53:48;8.95;;;8.13;;
11427;SDS011;5770;44.504;11.346;2023-05-07T05:56:15;9.38;;;8.48;;
11427;SDS011;5770;44.504;11.346;2023-05-07T05:58:44;10.48;;;9.13;;
11427;SDS011;5770;44.504;11.346;2023-05-07T06:01:11;11.70;;;9.70;;
11427;SDS011;5770;44.504;11.346;2023-05-07T06:03:38;10.80;;;9.88;;
11427;SDS011;5770;44.504;11.346;2023-05-07T06:06:06;11.32;;;10.13;;
11427;SDS011;5770;44.504;11.346;2023-05-07T06:08:33;13.05;;;9.57;;
11427;SDS011;5770;44.504;11.346;2023-05-07T06:11:01;10.63;;;8.55;;
11427;SDS011;5770;44.504;11.346;2023-05-07T06:13:28;9.75;;;8.82;;
11427;SDS011;5770;44.504;11.346;2023-05-07T06:15:57;9.10;;;7.60;;
11427;SDS011;5770;44.504;11.346;2023-05-07T06:18:24;10.90;;;7.70;;
11427;SDS011;5770;44.504;11.346;2023-05-07T06:20:51;7.80;;;7.10;;
11427;SDS011;5770;44.504;11.346;2023-05-07T06:23:19;9.32;;;7.85;;
11427;SDS011;5770;44.504;11.346;2023-05-07T06:25:48;7.63;;;6.85;;
11427;SDS011;5770;44.504;11.346;2023-05-07T06:28:15;7.13;;;6.43;;
11427;SDS011;5770;44.504;11.346;2023-05-07T06:30:42;8.30;;;6.88;;
11427;SDS011;5770;44.504;11.346;2023-05-07T06:33:11;7.75;;;6.85;;
11427;SDS011;5770;44.504;11.346;2023-05-07T06:35:38;8.80;;;7.43;;
11427;SDS011;5770;44.504;11.346;2023-05-07T06:38:06;10.07;;;7.57;;
11427;SDS011;5770;44.504;11.346;2023-05-07T06:40:33;10.30;;;9.20;;
11427;SDS011;5770;44.504;11.346;2023-05-07T06:43:03;10.55;;;9.38;;
11427;SDS011;5770;44.504;11.346;2023-05-07T06:45:30;10.82;;;9.25;;
11427;SDS011;5770;44.504;11.346;2023-05-07T06:48:01;12.25;;;9.80;;
11427;SDS011;5770;44.504;11.346;2023-05-07T06:50:30;13.68;;;10.30;;
11427;SDS011;5770;44.504;11.346;2023-05-07T06:52:57;11.40;;;10.15;;
11427;SDS011;5770;44.504;11.346;2023-05-07T06:55:25;10.32;;;9.32;;
11427;SDS011;5770;44.504;11.346;2023-05-07T06:57:52;11.77;;;10.63;;
11427;SDS011;5770;44.504;11.346;2023-05-07T07:00:19;10.75;;;9.68;;
11427;SDS011;5770;44.504;11.346;2023-05-07T07:02:47;11.95;;;10.60;;
11427;SDS011;5770;44.504;11.346;2023-05-07T07:05:14;13.23;;;10.65;;
11427;SDS011;5770;44.504;11.346;2023-05-07T07:07:42;13.20;;;10.77;;
11427;SDS011;5770;44.504;11.346;2023-05-07T07:10:10;12.75;;;10.95;;
11427;SDS011;5770;44.504;11.346;2023-05-07T07:12:37;12.52;;;11.23;;
11427;SDS011;5770;44.504;11.346;2023-05-07T07:15:05;12.45;;;11.18;;
11427;SDS011;5770;44.504;11.346;2023-05-07T07:17:32;12.15;;;11.05;;
11427;SDS011;5770;44.504;11.346;2023-05-07T07:20:00;12.40;;;11.18;;
11427;SDS011;5770;44.504;11.346;2023-05-07T07:22:27;13.57;;;11.55;;
11427;SDS011;5770;44.504;11.346;2023-05-07T07:24:56;12.07;;;10.93;;
11427;SDS011;5770;44.504;11.346;2023-05-07T07:27:23;14.18;;;12.70;;
11427;SDS011;5770;44.504;11.346;2023-05-07T07:29:50;14.27;;;11.45;;
11427;SDS011;5770;44.504;11.346;2023-05-07T07:32:17;15.52;;;11.15;;
11427;SDS011;5770;44.504;11.346;2023-05-07T07:34:45;11.93;;;10.73;;
11427;SDS011;5770;44.504;11.346;2023-05-07T07:37:12;12.10;;;10.90;;
11427;SDS011;5770;44.504;11.346;2023-05-07T07:39:39;13.15;;;11.60;;
11427;SDS011;5770;44.504;11.346;2023-05-07T07:42:08;12.23;;;10.98;;
11427;SDS011;5770;44.504;11.346;2023-05-07T07:44:36;12.52;;;10.93;;
11427;SDS011;5770;44.504;11.346;2023-05-07T07:47:04;11.57;;;10.45;;
11427;SDS011;5770;44.504;11.346;2023-05-07T07:49:31;12.05;;;10.95;;
11427;SDS011;5770;44.504;11.346;2023-05-07T07:55:03;14.43;;;10.18;;
11427;SDS011;5770;44.504;11.346;2023-05-07T07:57:32;12.50;;;10.30;;
11427;SDS011;5770;44.504;11.346;2023-05-07T07:59:59;10.50;;;9.50;;
11427;SDS011;5770;44.504;11.346;2023-05-07T08:02:27;10.98;;;9.75;;
11427;SDS011;5770;44.504;11.346;2023-05-07T08:04:54;10.93;;;9.90;;
11427;SDS011;5770;44.504;11.346;2023-05-07T08:07:21;10.70;;;8.77;;
11427;SDS011;5770;44.504;11.346;2023-05-07T08:09:49;11.48;;;9.18;;
11427;SDS011;5770;44.504;11.346;2023-05-07T08:12:16;11.23;;;9.70;;
11427;SDS011;5770;44.504;11.346;2023-05-07T08:14:45;11.27;;;10.15;;
11427;SDS011;5770;44.504;11.346;2023-05-07T08:17:12;11.60;;;9.95;;
11427;SDS011;5770;44.504;11.346;2023-05-07T08:19:40;11.10;;;10.10;;
11427;SDS011;5770;44.504;11.346;2023-05-07T08:22:08;11.48;;;9.63;;
11427;SDS011;5770;44.504;11.346;2023-05-07T08:24:35;12.20;;;9.60;;
11427;SDS011;5770;44.504;11.346;2023-05-07T08:27:04;11.75;;;9.18;;
11427;SDS011;5770;44.504;11.346;2023-05-07T08:29:32;9.57;;;8.63;;
11427;SDS011;5770;44.504;11.346;2023-05-07T08:32:01;13.52;;;9.07;;
11427;SDS011;5770;44.504;11.346;2023-05-07T08:34:28;9.38;;;8.50;;
11427;SDS011;5770;44.504;11.346;2023-05-07T08:36:55;10.07;;;8.57;;
11427;SDS011;5770;44.504;11.346;2023-05-07T08:39:22;9.13;;;7.55;;
11427;SDS011;5770;44.504;11.346;2023-05-07T08:41:50;11.18;;;7.85;;
11427;SDS011;5770;44.504;11.346;2023-05-07T08:44:22;11.50;;;8.65;;
11427;SDS011;5770;44.504;11.346;2023-05-07T08:46:52;24.13;;;9.18;;
11427;SDS011;5770;44.504;11.346;2023-05-07T08:49:21;10.18;;;9.27;;
11427;SDS011;5770;44.504;11.346;2023-05-07T08:51:48;9.65;;;8.65;;
11427;SDS011;5770;44.504;11.346;2023-05-07T08:54:16;8.93;;;8.02;;
11427;SDS011;5770;44.504;11.346;2023-05-07T08:56:44;12.43;;;7.80;;
11427;SDS011;5770;44.504;11.346;2023-05-07T08:59:11;11.50;;;8.00;;
11427;SDS011;5770;44.504;11.346;2023-05-07T09:01:39;11.00;;;9.40;;
11427;SDS011;5770;44.504;11.346;2023-05-07T09:04:06;9.50;;;8.57;;
11427;SDS011;5770;44.504;11.346;2023-05-07T09:06:35;8.73;;;7.85;;
11427;SDS011;5770;44.504;11.346;2023-05-07T09:09:07;8.65;;;7.90;;
11427;SDS011;5770;44.504;11.346;2023-05-07T09:11:34;8.63;;;7.68;;
11427;SDS011;5770;44.504;11.346;2023-05-07T09:14:01;8.90;;;7.72;;
11427;SDS011;5770;44.504;11.346;2023-05-07T09:16:29;9.57;;;8.50;;
11427;SDS011;5770;44.504;11.346;2023-05-07T09:18:57;8.95;;;7.82;;
11427;SDS011;5770;44.504;11.346;2023-05-07T09:21:25;12.65;;;8.65;;
11427;SDS011;5770;44.504;11.346;2023-05-07T09:23:54;11.07;;;7.93;;
11427;SDS011;5770;44.504;11.346;2023-05-07T09:26:22;8.35;;;7.43;;
11427;SDS011;5770;44.504;11.346;2023-05-07T09:28:49;9.93;;;8.50;;
11427;SDS011;5770;44.504;11.346;2023-05-07T09:31:16;12.13;;;11.02;;
11427;SDS011;5770;44.504;11.346;2023-05-07T09:33:44;10.05;;;9.10;;
11427;SDS011;5770;44.504;11.346;2023-05-07T09:36:11;9.93;;;8.93;;
11427;SDS011;5770;44.504;11.346;2023-05-07T09:38:41;13.90;;;10.10;;
11427;SDS011;5770;44.504;11.346;2023-05-07T09:41:10;11.52;;;9.18;;
11427;SDS011;5770;44.504;11.346;2023-05-07T09:43:41;11.35;;;10.25;;
11427;SDS011;5770;44.504;11.346;2023-05-07T09:46:11;11.15;;;9.35;;
11427;SDS011;5770;44.504;11.346;2023-05-07T09:48:40;10.82;;;9.13;;
11427;SDS011;5770;44.504;11.346;2023-05-07T09:51:11;11.45;;;8.05;;
11427;SDS011;5770;44.504;11.346;2023-05-07T09:53:47;10.93;;;7.90;;
11427;SDS011;5770;44.504;11.346;2023-05-07T09:56:16;11.18;;;9.52;;
11427;SDS011;5770;44.504;11.346;2023-05-07T09:58:48;10.00;;;8.57;;
11427;SDS011;5770;44.504;11.346;2023-05-07T10:01:17;9.30;;;7.07;;
11427;SDS011;5770;44.504;11.346;2023-05-07T10:03:55;10.05;;;8.10;;
11427;SDS011;5770;44.504;11.346;2023-05-07T10:06:23;9.82;;;7.32;;
11427;SDS011;5770;44.504;11.346;2023-05-07T10:08:52;10.63;;;8.30;;
11427;SDS011;5770;44.504;11.346;2023-05-07T10:11:24;8.50;;;7.63;;
11427;SDS011;5770;44.504;11.346;2023-05-07T10:13:52;8.40;;;7.57;;
11427;SDS011;5770;44.504;11.346;2023-05-07T10:16:22;8.85;;;7.95;;
11427;SDS011;5770;44.504;11.346;2023-05-07T10:18:50;12.18;;;9.30;;
11427;SDS011;5770;44.504;11.346;2023-05-07T10:21:21;10.48;;;8.20;;
11427;SDS011;5770;44.504;11.346;2023-05-07T10:23:53;14.88;;;9.00;;
11427;SDS011;5770;44.504;11.346;2023-05-07T10:26:29;9.48;;;8.57;;
11427;SDS011;5770;44.504;11.346;2023-05-07T10:28:58;8.82;;;7.93;;
11427;SDS011;5770;44.504;11.346;2023-05-07T10:31:36;11.27;;;9.70;;
11427;SDS011;5770;44.504;11.346;2023-05-07T10:34:07;11.65;;;8.55;;
11427;SDS011;5770;44.504;11.346;2023-05-07T10:36:35;8.55;;;7.75;;
11427;SDS011;5770;44.504;11.346;2023-05-07T10:39:02;11.55;;;8.82;;
11427;SDS011;5770;44.504;11.346;2023-05-07T10:41:36;13.07;;;9.27;;
11427;SDS011;5770;44.504;11.346;2023-05-07T10:44:04;10.77;;;8.38;;
11427;SDS011;5770;44.504;11.346;2023-05-07T10:46:32;10.07;;;7.97;;
11427;SDS011;5770;44.504;11.346;2023-05-07T10:49:13;11.02;;;8.80;;
11427;SDS011;5770;44.504;11.346;2023-05-07T10:51:52;8.85;;;7.95;;
11427;SDS011;5770;44.504;11.346;2023-05-07T10:54:37;8.00;;;7.18;;
11427;SDS011;5770;44.504;11.346;2023-05-07T11:00:17;8.48;;;6.60;;
11427;SDS011;5770;44.504;11.346;2023-05-07T11:03:10;8.55;;;6.72;;
11427;SDS011;5770;44.504;11.346;2023-05-07T11:05:37;9.35;;;7.55;;
11427;SDS011;5770;44.504;11.346;2023-05-07T11:08:05;8.27;;;7.47;;
11427;SDS011;5770;44.504;11.346;2023-05-07T11:10:47;7.15;;;6.50;;
11427;SDS011;5770;44.504;11.346;2023-05-07T11:13:17;7.45;;;6.60;;
11427;SDS011;5770;44.504;11.346;2023-05-07T11:15:45;7.18;;;6.57;;
11427;SDS011;5770;44.504;11.346;2023-05-07T11:18:13;8.18;;;6.65;;
11427;SDS011;5770;44.504;11.346;2023-05-07T11:20:45;9.00;;;6.10;;
11427;SDS011;5770;44.504;11.346;2023-05-07T11:26:26;9.13;;;6.75;;
11427;SDS011;5770;44.504;11.346;2023-05-07T11:28:57;7.13;;;5.93;;
11427;SDS011;5770;44.504;11.346;2023-05-07T11:31:26;6.88;;;5.20;;
11427;SDS011;5770;44.504;11.346;2023-05-07T11:34:04;5.30;;;4.85;;
11427;SDS011;5770;44.504;11.346;2023-05-07T11:36:35;5.10;;;4.60;;
11427;SDS011;5770;44.504;11.346;2023-05-07T11:39:27;5.10;;;4.70;;
11427;SDS011;5770;44.504;11.346;2023-05-07T11:41:55;7.75;;;7.03;;
11427;SDS011;5770;44.504;11.346;2023-05-07T11:44:27;8.48;;;7.65;;
11427;SDS011;5770;44.504;11.346;2023-05-07T11:47:05;10.35;;;6.97;;
11427;SDS011;5770;44.504;11.346;2023-05-07T11:49:36;7.70;;;6.70;;
11427;SDS011;5770;44.504;11.346;2023-05-07T11:52:03;8.32;;;7.40;;
11427;SDS011;5770;44.504;11.346;2023-05-07T11:54:35;10.57;;;9.57;;
11427;SDS011;5770;44.504;11.346;2023-05-07T11:57:14;10.25;;;7.40;;
11427;SDS011;5770;44.504;11.346;2023-05-07T11:59:44;7.63;;;6.88;;
11427;SDS011;5770;44.504;11.346;2023-05-07T12:02:15;8.65;;;6.03;;
11427;SDS011;5770;44.504;11.346;2023-05-07T12:04:42;7.85;;;6.97;;
11427;SDS011;5770;44.504;11.346;2023-05-07T12:07:12;8.40;;;7.07;;
11427;SDS011;5770;44.504;11.346;2023-05-07T12:09:40;13.90;;;8.27;;
11427;SDS011;5770;44.504;11.346;2023-05-07T12:12:07;8.95;;;7.85;;
11427;SDS011;5770;44.504;11.346;2023-05-07T12:14:37;8.43;;;7.63;;
11427;SDS011;5770;44.504;11.346;2023-05-07T12:17:08;7.38;;;6.65;;
11427;SDS011;5770;44.504;11.346;2023-05-07T12:19:36;8.38;;;7.40;;
11427;SDS011;5770;44.504;11.346;2023-05-07T12:22:04;6.93;;;6.32;;
11427;SDS011;5770;44.504;11.346;2023-05-07T12:24:41;8.40;;;6.90;;
11427;SDS011;5770;44.504;11.346;2023-05-07T12:27:09;7.75;;;6.43;;
11427;SDS011;5770;44.504;11.346;2023-05-07T12:29:36;8.77;;;6.28;;
11427;SDS011;5770;44.504;11.346;2023-05-07T12:32:06;12.27;;;6.90;;
11427;SDS011;5770;44.504;11.346;2023-05-07T12:34:41;7.78;;;6.38;;
11427;SDS011;5770;44.504;11.346;2023-05-07T12:37:08;11.40;;;6.88;;
11427;SDS011;5770;44.504;11.346;2023-05-07T12:39:35;7.00;;;6.30;;
11427;SDS011;5770;44.504;11.346;2023-05-07T12:42:04;8.63;;;6.13;;
11427;SDS011;5770;44.504;11.346;2023-05-07T12:44:32;7.88;;;6.15;;
11427;SDS011;5770;44.504;11.346;2023-05-07T12:47:01;7.10;;;5.68;;
11427;SDS011;5770;44.504;11.346;2023-05-07T12:49:28;10.55;;;5.70;;
11427;SDS011;5770;44.504;11.346;2023-05-07T12:52:03;6.07;;;5.55;;
11427;SDS011;5770;44.504;11.346;2023-05-07T12:54:30;6.47;;;5.88;;
11427;SDS011;5770;44.504;11.346;2023-05-07T12:57:02;6.53;;;5.30;;
11427;SDS011;5770;44.504;11.346;2023-05-07T12:59:33;7.03;;;6.05;;
11427;SDS011;5770;44.504;11.346;2023-05-07T13:02:04;5.63;;;5.13;;
11427;SDS011;5770;44.504;11.346;2023-05-07T13:04:31;7.10;;;6.18;;
11427;SDS011;5770;44.504;11.346;2023-05-07T13:06:59;6.90;;;6.30;;
11427;SDS011;5770;44.504;11.346;2023-05-07T13:09:27;7.47;;;6.72;;
11427;SDS011;5770;44.504;11.346;2023-05-07T13:11:55;9.98;;;6.60;;
11427;SDS011;5770;44.504;11.346;2023-05-07T13:14:25;8.27;;;6.88;;
11427;SDS011;5770;44.504;11.346;2023-05-07T13:16:52;11.75;;;6.45;;
11427;SDS011;5770;44.504;11.346;2023-05-07T13:19:19;7.38;;;5.80;;
11427;SDS011;5770;44.504;11.346;2023-05-07T13:21:46;6.90;;;6.30;;
11427;SDS011;5770;44.504;11.346;2023-05-07T13:24:14;8.45;;;5.88;;
11427;SDS011;5770;44.504;11.346;2023-05-07T13:26:43;7.10;;;5.60;;
11427;SDS011;5770;44.504;11.346;2023-05-07T13:29:10;8.10;;;6.07;;
11427;SDS011;5770;44.504;11.346;2023-05-07T13:31:37;8.40;;;6.15;;
11427;SDS011;5770;44.504;11.346;2023-05-07T13:34:07;7.82;;;6.18;;
11427;SDS011;5770;44.504;11.346;2023-05-07T13:36:38;8.60;;;5.88;;
11427;SDS011;5770;44.504;11.346;2023-05-07T13:39:07;6.57;;;5.97;;
11427;SDS011;5770;44.504;11.346;2023-05-07T13:41:34;7.28;;;5.35;;
11427;SDS011;5770;44.504;11.346;2023-05-07T13:44:07;7.53;;;5.82;;
11427;SDS011;5770;44.504;11.346;2023-05-07T13:46:35;9.85;;;6.07;;
11427;SDS011;5770;44.504;11.346;2023-05-07T13:49:02;6.03;;;5.40;;
11427;SDS011;5770;44.504;11.346;2023-05-07T13:51:29;7.00;;;5.93;;
11427;SDS011;5770;44.504;11.346;2023-05-07T13:53:57;6.30;;;5.47;;
11427;SDS011;5770;44.504;11.346;2023-05-07T13:56:24;7.07;;;5.60;;
11427;SDS011;5770;44.504;11.346;2023-05-07T13:58:53;8.23;;;5.88;;
11427;SDS011;5770;44.504;11.346;2023-05-07T14:01:22;47.47;;;33.65;;
11427;SDS011;5770;44.504;11.346;2023-05-07T14:03:49;20.95;;;14.13;;
11427;SDS011;5770;44.504;11.346;2023-05-07T14:06:16;8.80;;;7.00;;
11427;SDS011;5770;44.504;11.346;2023-05-07T14:08:43;9.15;;;6.05;;
11427;SDS011;5770;44.504;11.346;2023-05-07T14:11:10;7.05;;;6.45;;
11427;SDS011;5770;44.504;11.346;2023-05-07T14:13:37;6.22;;;5.63;;
11427;SDS011;5770;44.504;11.346;2023-05-07T14:16:05;10.60;;;6.32;;
11427;SDS011;5770;44.504;11.346;2023-05-07T14:18:34;7.32;;;5.72;;
11427;SDS011;5770;44.504;11.346;2023-05-07T14:21:02;5.88;;;5.32;;
11427;SDS011;5770;44.504;11.346;2023-05-07T14:23:31;6.68;;;5.22;;
11427;SDS011;5770;44.504;11.346;2023-05-07T14:25:58;6.25;;;5.57;;
11427;SDS011;5770;44.504;11.346;2023-05-07T14:28:27;5.72;;;5.22;;
11427;SDS011;5770;44.504;11.346;2023-05-07T14:30:54;7.53;;;5.07;;
11427;SDS011;5770;44.504;11.346;2023-05-07T14:33:22;6.18;;;4.90;;
11427;SDS011;5770;44.504;11.346;2023-05-07T14:35:51;6.53;;;5.32;;
11427;SDS011;5770;44.504;11.346;2023-05-07T14:38:18;6.63;;;5.32;;
11427;SDS011;5770;44.504;11.346;2023-05-07T14:40:45;6.20;;;5.68;;
11427;SDS011;5770;44.504;11.346;2023-05-07T14:43:13;8.02;;;5.15;;
11427;SDS011;5770;44.504;11.346;2023-05-07T14:45:40;7.65;;;6.50;;
11427;SDS011;5770;44.504;11.346;2023-05-07T14:48:10;6.07;;;5.57;;
11427;SDS011;5770;44.504;11.346;2023-05-07T14:50:40;21.40;;;15.95;;
11427;SDS011;5770;44.504;11.346;2023-05-07T14:53:08;27.73;;;19.30;;
11427;SDS011;5770;44.504;11.346;2023-05-07T14:55:35;6.60;;;6.00;;
11427;SDS011;5770;44.504;11.346;2023-05-07T14:58:03;7.90;;;5.22;;